Eastend, Canada
Current Conditions -  °F | °C
As of 6:00 AM on Friday 24 Oct 2014 (Local Time) from CYYN Reporting Station
Clear Clear  
Wind Chill: 40°   Ceiling: Unl
Heat Index: 48°   Visibility: 9mi
Dew Point: 32°   Wind: 28mph
Humidity: 54%   Direction: 250°WSW
Pressure: 29.72"   Gusts: 36mph
Location:  49.52°N, 108.82°W
Report Text: CYYN 241200Z AUTO 25024G31KT 9SM CLR 09/00 A2972 RMK SLP071 DENSITY ALT 2800FT
Loading
Personal Weather Stations






























Interactive Weather Map
Tropical Storm Tracking
New forecast layout! Learn more

10-Day Weather Forecast

Advertisements
Track Severe Weather on mobile